createdAt,value
2022-08-17T00:07:18.829Z,22.1
2022-08-17T00:17:19.554Z,21.1
2022-08-17T00:27:20.315Z,20.9
2022-08-17T00:37:21.097Z,20.8
2022-08-17T00:47:21.643Z,20.7
2022-08-17T00:57:21.750Z,20.6
2022-08-17T01:07:22.746Z,20.6
2022-08-17T01:17:23.614Z,20.6
2022-08-17T01:27:24.682Z,20.5
2022-08-17T01:57:25.707Z,20.3
2022-08-17T02:27:28.176Z,19.8
2022-08-17T02:37:28.748Z,19.5
2022-08-17T02:47:28.821Z,19.5
2022-08-17T03:07:29.768Z,19.4
2022-08-17T03:17:30.030Z,19.5
2022-08-17T03:27:30.612Z,19.5
2022-08-17T03:57:31.773Z,20
2022-08-17T04:07:32.033Z,20.2
2022-08-17T04:17:32.384Z,20.4
2022-08-17T04:27:32.709Z,20.5
2022-08-17T04:37:33.432Z,20.5
2022-08-17T04:47:33.760Z,20.4
2022-08-17T04:57:37.737Z,20.5
2022-08-17T05:07:35.430Z,20.6
2022-08-17T05:17:35.573Z,20.7
2022-08-17T05:57:47.594Z,21.9
2022-08-17T06:07:38.540Z,22.2
2022-08-17T06:17:39.160Z,22.5
2022-08-17T06:37:40.838Z,22.8
2022-08-17T06:47:41.567Z,22.8
2022-08-17T06:57:42.159Z,22.6
2022-08-17T07:07:42.405Z,22.5
2022-08-17T07:27:43.501Z,22.8
2022-08-17T07:37:44.000Z,22.8
2022-08-17T07:47:44.211Z,23.1
2022-08-17T07:57:44.990Z,23.6
2022-08-17T08:07:45.738Z,24.3
2022-08-17T08:17:45.944Z,24.6
2022-08-17T08:27:46.974Z,25
2022-08-17T08:47:47.292Z,25.7
2022-08-17T09:07:47.678Z,25.9
2022-08-17T09:17:48.389Z,26.1
2022-08-17T09:27:49.408Z,26
2022-08-17T09:47:57.713Z,25.8
2022-08-17T09:57:51.322Z,25.7
2022-08-17T10:07:52.353Z,25.6
2022-08-17T10:17:52.417Z,25.5
2022-08-17T10:27:53.290Z,25.4
2022-08-17T10:37:54.055Z,25.4
2022-08-17T10:47:55.670Z,25.1
2022-08-17T10:57:55.759Z,24.8
2022-08-17T11:07:55.934Z,24.6
2022-08-17T11:17:56.778Z,24.4
2022-08-17T11:27:57.318Z,24
2022-08-17T11:37:57.962Z,23.8
2022-08-17T11:48:24.158Z,23.6
2022-08-17T11:57:58.593Z,23.8
2022-08-17T12:07:59.108Z,23.6
2022-08-17T12:48:00.626Z,24.1
2022-08-17T12:58:01.783Z,24.5
2022-08-17T13:18:02.441Z,25.1
2022-08-17T13:28:02.758Z,25.7
2022-08-17T13:38:03.519Z,26.2
2022-08-17T13:48:04.446Z,25.8
2022-08-17T13:58:06.970Z,26.5
2022-08-17T14:08:06.300Z,26.4
2022-08-17T14:38:06.068Z,26.4
2022-08-17T14:48:06.274Z,26.3
2022-08-17T14:58:07.275Z,25.6
2022-08-17T15:08:07.986Z,25.3
2022-08-17T15:18:15.259Z,25.3
2022-08-17T15:28:09.017Z,25.5
2022-08-17T15:38:11.917Z,25.4
2022-08-17T15:58:10.854Z,25.8
2022-08-17T16:48:13.279Z,24.8
2022-08-17T17:08:13.439Z,24.7
2022-08-17T17:18:13.583Z,24.7
2022-08-17T17:28:13.903Z,24.4
2022-08-17T17:38:14.510Z,24.2
2022-08-17T17:48:14.846Z,24.1
2022-08-17T17:58:15.450Z,23.9
2022-08-17T18:08:15.635Z,23.7
2022-08-17T18:18:15.902Z,23.6
2022-08-17T18:38:19.896Z,23.3
2022-08-17T18:48:17.698Z,23
2022-08-17T18:58:18.542Z,22.7
2022-08-17T19:08:19.258Z,22.5
2022-08-17T19:18:20.269Z,22.3
2022-08-17T19:28:21.984Z,22.1
2022-08-17T19:38:21.364Z,21.9
2022-08-17T19:48:22.309Z,21.7
2022-08-17T20:28:24.507Z,20.9
2022-08-17T20:38:39.450Z,20.8
2022-08-17T20:48:37.772Z,20.8
2022-08-17T20:58:33.278Z,20.7
2022-08-17T21:08:45.260Z,20.5
2022-08-17T21:18:35.009Z,20.4
2022-08-17T21:38:29.556Z,20.2
2022-08-17T21:48:37.194Z,19.9
2022-08-17T21:58:30.728Z,19.8
2022-08-17T22:08:31.152Z,19.7
2022-08-17T22:18:38.769Z,19.7
2022-08-17T22:28:39.041Z,19.6
2022-08-17T22:38:32.890Z,19.5
2022-08-17T22:58:41.120Z,19.3
2022-08-17T23:48:41.974Z,18.5
2022-08-17T23:58:47.937Z,18.5
